LRFT - airport unknown

Compiled: 21:31:17 on 19/01/2018

Latest METAR/SPECI Reports

METAR LRFT 191200Z 25020KT 9999 FEW100 07/M02 Q1009 BLU BLU=

Previous reports

METAR LRFT 191100Z 25018KT 9999 FEW100 07/M02 Q1010 BLU BLU=
METAR LRFT 191000Z 24012KT 9999 FEW100 06/M02 Q1010 BLU BLU=
METAR LRFT 190900Z 23010KT 9999 FEW100 04/M03 Q1010 BLU BLU=
METAR LRFT 190800Z 22010KT 9999 FEW100 02/M03 Q1010 BLU BLU=

Latest TAF report

TAF LRFT 191100Z 1912/2012 25020KT 9999 SCT100 BECMG 1916/1918 21006KT BECMG 1923/2001 BKN090=

Valid WARNINGS

No valid warnings for LRFT